FW1071 Bay Center WA US current weather conditions

sailwx.info

Wind from 121 at 8 knots gusting 15

Air temperature 9.4° C
Dewpoint 8.4° C

Last reported at 2020-Jan-25 13:01 UTC.
Time now 2020-Jan-25 14:04 UTC

Location: N 46°38' W 123°57'.
View on Google Maps.

See reports from other nearby stations

  
Tides and Currents Weather Stations Pressure Air Temp Water Temp Dewpoint Dewpoint Depression Visibility Wind Speed Wind Dir Waves Ship Positions
date/time (UTC)wind fromknots sea level pressurealtimeterstation pressurevisibilityair tempwater tempwave heightnotes
2020-Jan-25 13:01 121 8 gusting 15 9.4
2020-Jan-25 12:46 116 13 gusting 18 9.4
2020-Jan-25 12:31 109 12 gusting 17 9.4
2020-Jan-25 12:00 111 6 gusting 8 8.9
2020-Jan-25 11:31 074 4 gusting 6 8.9
2020-Jan-25 11:00 073 3 gusting 6 8.9
2020-Jan-25 10:46 066 6 gusting 10 8.9
2020-Jan-25 10:32 071 6 gusting 8 8.9
2020-Jan-25 10:01 071 9 gusting 13 8.9
2020-Jan-25 09:48 077 9 gusting 12 8.9
2020-Jan-25 09:31 066 6 gusting 10 9.4
2020-Jan-25 09:00 087 6 gusting 7 9.4
2020-Jan-25 08:46 104 5 gusting 7 9.4
2020-Jan-25 08:31 107 6 gusting 7 9.4
2020-Jan-25 08:00 117 7 gusting 10 9.4
2020-Jan-25 07:45 128 6 gusting 7 9.4
2020-Jan-25 07:30 133 5 gusting 7 9.4
2020-Jan-25 07:00 121 4 gusting 7 10.0
2020-Jan-25 06:45 123 6 gusting 8 9.4
2020-Jan-25 06:30 119 6 gusting 7 9.4
2020-Jan-25 06:00 120 6 gusting 8 10.0
2020-Jan-25 05:45 121 5 gusting 8 10.0
2020-Jan-25 05:30 139 6 gusting 9 10.0
2020-Jan-25 05:01 138 5 gusting 8 10.0
2020-Jan-25 04:45 138 6 gusting 11 10.0
2020-Jan-25 04:30 165 6 gusting 12 10.0
2020-Jan-25 04:00 185 6 gusting 11 10.0
2020-Jan-25 03:45 166 6 gusting 13 10.0
2020-Jan-25 03:30 167 6 gusting 10 10.0
2020-Jan-25 03:00 163 7 gusting 13 10.0
2020-Jan-25 02:45 178 6 gusting 15 9.4
2020-Jan-25 02:30 188 6 gusting 13 9.4
2020-Jan-25 02:00 176 7 gusting 16 10.0
2020-Jan-25 01:45 142 6 gusting 16 9.4
2020-Jan-25 01:30 155 6 gusting 16 9.4
2020-Jan-25 01:00 178 7 gusting 13 10.0
2020-Jan-25 00:45 184 6 gusting 16 10.0
2020-Jan-25 00:30 159 9 gusting 17 10.0
2020-Jan-25 00:00 203 7 gusting 17 10.0
2020-Jan-24 23:45 177 6 gusting 17 10.0
2020-Jan-24 23:31 167 8 gusting 13 9.4
2020-Jan-24 23:18 169 4 gusting 11 10.0
2020-Jan-24 23:04 179 6 gusting 13 9.4
2020-Jan-24 22:46 156 5 gusting 10 10.0
2020-Jan-24 22:34 170 4 gusting 8 10.0
2020-Jan-24 22:17 168 5 gusting 7 9.4
2020-Jan-24 22:00 222 5 gusting 11 9.4
2020-Jan-24 21:45 192 5 gusting 12 9.4
2020-Jan-24 21:30 184 3 gusting 13 9.4
2020-Jan-24 21:02 170 11 gusting 25 9.4
2020-Jan-24 20:47 139 13 gusting 23 10.0
2020-Jan-24 20:31 222 4 gusting 8 10.0
2020-Jan-24 20:16 201 9 gusting 28 10.0
2020-Jan-24 20:00 186 10 gusting 25 10.0
2020-Jan-24 19:45 188 7 gusting 18 10.0
2020-Jan-24 19:30 186 12 gusting 21 10.0
2020-Jan-24 19:02 245 12 gusting 21 10.0
2020-Jan-24 18:46 161 10 gusting 21 10.0
2020-Jan-24 18:31 199 11 gusting 20 10.0
2020-Jan-24 18:17 153 8 gusting 19 10.0
2020-Jan-24 18:01 188 10 gusting 21 10.0
2020-Jan-24 17:47 192 9 gusting 21 9.4
2020-Jan-24 17:31 181 8 gusting 21 9.4
2020-Jan-24 17:16 184 11 gusting 22 9.4
2020-Jan-24 17:01 177 12 gusting 20 9.4
2020-Jan-24 16:45 153 11 gusting 23 9.4
2020-Jan-24 16:31 190 10 gusting 19 9.4
2020-Jan-24 16:16 153 8 gusting 18 9.4
2020-Jan-24 16:02 138 11 gusting 25 9.4
2020-Jan-24 15:46 172 11 gusting 21 9.4
2020-Jan-24 15:31 162 9 gusting 19 9.4
2020-Jan-24 15:16 158 9 gusting 18 9.4
2020-Jan-24 15:01 223 6 gusting 17 9.4
2020-Jan-24 14:45 140 6 gusting 21 9.4
2020-Jan-24 14:31 157 8 gusting 16 9.4
2020-Jan-24 14:16 140 8 gusting 17 9.4
2020-Jan-24 14:01 169 8 gusting 20 9.4
2020-Jan-24 13:46 169 9 gusting 17 9.4
2020-Jan-24 13:31 136 8 gusting 19 9.4
2020-Jan-24 13:15 188 7 gusting 13 9.4
2020-Jan-24 13:00 153 6 gusting 15 9.4
2020-Jan-24 12:45 192 8 gusting 18 9.4
2020-Jan-24 12:30 153 6 gusting 15 9.4
2020-Jan-24 12:15 183 8 gusting 15 9.4
2020-Jan-24 12:00 164 6 gusting 13 9.4
2020-Jan-24 11:45 163 7 gusting 16 9.4
2020-Jan-24 11:30 185 7 gusting 13 9.4
2020-Jan-24 11:15 138 7 gusting 13 9.4
2020-Jan-24 11:00 140 6 gusting 13 9.4
2020-Jan-24 10:45 159 6 gusting 16 9.4
2020-Jan-24 10:33 202 7 gusting 19 9.4
2020-Jan-24 10:16 200 8 gusting 19 9.4
2020-Jan-24 10:01 186 7 gusting 16 9.4
2020-Jan-24 09:46 144 8 gusting 18 10.0
2020-Jan-24 09:31 198 7 gusting 15 10.0
2020-Jan-24 09:03 178 6 gusting 13 10.0
2020-Jan-24 08:47 156 7 gusting 19 10.0
2020-Jan-24 08:32 188 6 gusting 17 10.0
2020-Jan-24 08:17 151 8 gusting 16 10.0
2020-Jan-24 08:01 142 7 gusting 16 10.0
2020-Jan-24 07:48 165 8 gusting 22 10.0
2020-Jan-24 07:32 178 8 gusting 19 10.0
2020-Jan-24 07:18 178 7 gusting 18 10.0
2020-Jan-24 07:01 163 9 gusting 19 10.0
2020-Jan-24 06:46 128 12 gusting 25 10.0
2020-Jan-24 06:31 223 12 gusting 19 10.0
2020-Jan-24 06:16 188 8 gusting 19 10.0
2020-Jan-24 06:01 163 10 gusting 19 10.0
2020-Jan-24 05:46 141 10 gusting 19 10.0
2020-Jan-24 05:31 149 11 gusting 18 10.0
2020-Jan-24 05:17 148 9 gusting 19 10.0
2020-Jan-24 05:01 154 9 gusting 19 10.0
2020-Jan-24 04:47 181 7 gusting 16 10.0
2020-Jan-24 04:31 138 8 gusting 17 10.0
2020-Jan-24 04:16 150 9 gusting 17 10.0
2020-Jan-24 04:00 142 9 gusting 15 10.0
2020-Jan-24 03:46 161 7 gusting 15 10.0
2020-Jan-24 03:31 171 11 gusting 21 10.0
2020-Jan-24 03:18 146 11 gusting 19 10.6
2020-Jan-24 03:01 107 10 gusting 23 10.6
2020-Jan-24 02:47 154 13 gusting 21 10.6
2020-Jan-24 02:31 162 9 gusting 22 10.6
2020-Jan-24 02:16 161 13 gusting 27 10.6
2020-Jan-24 02:00 171 12 gusting 26 10.6
2020-Jan-24 01:45 127 13 gusting 20 10.6
2020-Jan-24 01:31 178 13 gusting 26 10.6
2020-Jan-24 01:15 164 8 gusting 18 11.1
2020-Jan-24 01:01 148 6 gusting 17 10.6
2020-Jan-24 00:46 167 6 gusting 15 11.1
2020-Jan-24 00:31 146 9 gusting 19 11.1
2020-Jan-24 00:16 140 13 gusting 24 11.1
2020-Jan-24 00:00 146 14 gusting 21 10.6
2020-Jan-23 23:46 165 10 gusting 22 10.6
2020-Jan-23 23:30 167 14 gusting 28 10.6
2020-Jan-23 23:15 159 18 gusting 39 10.6
2020-Jan-23 23:00 184 14 gusting 29 10.6
2020-Jan-23 22:46 171 13 gusting 26 10.6
2020-Jan-23 22:30 143 15 gusting 23 10.6
2020-Jan-23 22:15 152 11 gusting 24 10.6
2020-Jan-23 22:00 158 11 gusting 22 10.6
2020-Jan-23 21:45 171 10 gusting 21 10.6
2020-Jan-23 21:31 151 14 gusting 26 10.6
2020-Jan-23 21:16 157 13 gusting 22 10.6
2020-Jan-23 21:00 135 16 gusting 26 10.6
2020-Jan-23 20:46 190 14 gusting 25 10.6
2020-Jan-23 20:30 164 16 gusting 26 10.6
2020-Jan-23 20:15 155 13 gusting 25 10.6
2020-Jan-23 20:00 155 15 gusting 22 10.6
2020-Jan-23 19:45 139 13 gusting 27 10.6
2020-Jan-23 19:30 146 11 gusting 25 10.6
2020-Jan-23 19:15 161 11 gusting 25 10.6
2020-Jan-23 19:01 158 13 gusting 25 10.6
2020-Jan-23 18:47 178 12 gusting 23 10.6
2020-Jan-23 18:31 143 11 gusting 21 10.6
2020-Jan-23 18:17 142 13 gusting 22 10.6
2020-Jan-23 18:00 134 10 gusting 20 10.6
2020-Jan-23 17:45 138 14 gusting 25 10.0
2020-Jan-23 17:30 152 11 gusting 25 10.6
2020-Jan-23 17:15 147 13 gusting 26 10.6
2020-Jan-23 17:01 154 12 gusting 22 10.6
2020-Jan-23 17:00 129 10 gusting 22 10.6
2020-Jan-23 16:48 158 15 gusting 28 10.0
2020-Jan-23 16:34 115 13 gusting 24 10.0
2020-Jan-23 16:16 129 15 gusting 25 10.0
2020-Jan-23 16:02 173 13 gusting 25 10.0
2020-Jan-23 15:46 138 9 gusting 17 10.0
2020-Jan-23 15:33 167 10 gusting 22 10.0
2020-Jan-23 15:17 178 9 gusting 21 10.0
2020-Jan-23 14:48 163 16 gusting 30 10.0
2020-Jan-23 14:32 169 13 gusting 26 10.0
2020-Jan-23 14:16 132 15 gusting 27 10.0
2020-Jan-23 14:02 144 14 gusting 25 10.0